sensor_id;sensor_type;location;lat;lon;timestamp;temperature;humidity
76168;DHT22;64927;48.214;16.378;2023-06-26T00:00:35;21.90;51.80
76168;DHT22;64927;48.214;16.378;2023-06-26T00:03:02;21.90;52.60
76168;DHT22;64927;48.214;16.378;2023-06-26T00:05:30;21.90;52.30
76168;DHT22;64927;48.214;16.378;2023-06-26T00:07:56;21.80;52.00
76168;DHT22;64927;48.214;16.378;2023-06-26T00:10:26;21.80;52.10
76168;DHT22;64927;48.214;16.378;2023-06-26T00:12:52;21.80;52.10
76168;DHT22;64927;48.214;16.378;2023-06-26T00:15:17;21.80;52.30
76168;DHT22;64927;48.214;16.378;2023-06-26T00:17:43;21.80;52.30
76168;DHT22;64927;48.214;16.378;2023-06-26T00:20:10;21.80;52.30
76168;DHT22;64927;48.214;16.378;2023-06-26T00:22:36;21.80;52.10
76168;DHT22;64927;48.214;16.378;2023-06-26T00:25:01;21.90;51.90
76168;DHT22;64927;48.214;16.378;2023-06-26T00:27:29;21.90;52.00
76168;DHT22;64927;48.214;16.378;2023-06-26T00:29:55;21.80;52.10
76168;DHT22;64927;48.214;16.378;2023-06-26T00:32:20;21.80;52.20
76168;DHT22;64927;48.214;16.378;2023-06-26T00:34:46;21.80;52.30
76168;DHT22;64927;48.214;16.378;2023-06-26T00:37:12;21.70;52.00
76168;DHT22;64927;48.214;16.378;2023-06-26T00:39:40;21.70;52.10
76168;DHT22;64927;48.214;16.378;2023-06-26T00:42:06;21.70;52.90
76168;DHT22;64927;48.214;16.378;2023-06-26T00:44:32;21.70;52.00
76168;DHT22;64927;48.214;16.378;2023-06-26T00:46:57;21.70;51.90
76168;DHT22;64927;48.214;16.378;2023-06-26T00:49:23;21.70;51.90
76168;DHT22;64927;48.214;16.378;2023-06-26T00:51:49;21.70;52.00
76168;DHT22;64927;48.214;16.378;2023-06-26T00:54:15;21.70;52.10
76168;DHT22;64927;48.214;16.378;2023-06-26T00:56:46;21.70;51.90
76168;DHT22;64927;48.214;16.378;2023-06-26T00:59:12;21.60;51.90
76168;DHT22;64927;48.214;16.378;2023-06-26T01:01:38;21.70;52.00
76168;DHT22;64927;48.214;16.378;2023-06-26T01:04:06;21.60;52.00
76168;DHT22;64927;48.214;16.378;2023-06-26T01:06:33;21.60;52.00
76168;DHT22;64927;48.214;16.378;2023-06-26T01:09:02;21.60;52.10
76168;DHT22;64927;48.214;16.378;2023-06-26T01:11:28;21.50;52.30
76168;DHT22;64927;48.214;16.378;2023-06-26T01:13:56;21.50;52.50
76168;DHT22;64927;48.214;16.378;2023-06-26T01:16:28;21.60;52.50
76168;DHT22;64927;48.214;16.378;2023-06-26T01:18:57;21.60;53.20
76168;DHT22;64927;48.214;16.378;2023-06-26T01:21:23;21.50;52.20
76168;DHT22;64927;48.214;16.378;2023-06-26T01:24:12;21.50;52.30
76168;DHT22;64927;48.214;16.378;2023-06-26T01:26:49;21.50;52.60
76168;DHT22;64927;48.214;16.378;2023-06-26T01:29:17;21.40;53.60
76168;DHT22;64927;48.214;16.378;2023-06-26T01:31:44;21.40;52.90
76168;DHT22;64927;48.214;16.378;2023-06-26T01:34:12;21.40;52.90
76168;DHT22;64927;48.214;16.378;2023-06-26T01:36:38;21.30;53.00
76168;DHT22;64927;48.214;16.378;2023-06-26T01:39:03;21.30;53.10
76168;DHT22;64927;48.214;16.378;2023-06-26T01:41:29;21.30;54.00
76168;DHT22;64927;48.214;16.378;2023-06-26T01:46:59;21.30;53.40
76168;DHT22;64927;48.214;16.378;2023-06-26T01:52:21;21.20;53.70
76168;DHT22;64927;48.214;16.378;2023-06-26T01:57:39;21.10;54.00
76168;DHT22;64927;48.214;16.378;2023-06-26T02:00:06;21.00;53.80
76168;DHT22;64927;48.214;16.378;2023-06-26T02:02:35;21.10;53.90
76168;DHT22;64927;48.214;16.378;2023-06-26T02:05:01;21.10;54.20
76168;DHT22;64927;48.214;16.378;2023-06-26T02:07:29;21.00;54.10
76168;DHT22;64927;48.214;16.378;2023-06-26T02:09:55;21.00;53.90
76168;DHT22;64927;48.214;16.378;2023-06-26T02:12:20;21.00;54.20
76168;DHT22;64927;48.214;16.378;2023-06-26T02:14:46;21.00;54.20
76168;DHT22;64927;48.214;16.378;2023-06-26T02:17:11;21.00;54.30
76168;DHT22;64927;48.214;16.378;2023-06-26T02:19:37;21.00;54.30
76168;DHT22;64927;48.214;16.378;2023-06-26T02:22:10;21.00;54.20
76168;DHT22;64927;48.214;16.378;2023-06-26T02:24:36;21.00;54.20
76168;DHT22;64927;48.214;16.378;2023-06-26T02:27:01;21.00;54.20
76168;DHT22;64927;48.214;16.378;2023-06-26T02:29:27;21.00;54.50
76168;DHT22;64927;48.214;16.378;2023-06-26T02:31:53;21.00;54.20
76168;DHT22;64927;48.214;16.378;2023-06-26T02:34:19;21.00;54.10
76168;DHT22;64927;48.214;16.378;2023-06-26T02:36:44;21.00;54.20
76168;DHT22;64927;48.214;16.378;2023-06-26T02:39:10;21.00;54.20
76168;DHT22;64927;48.214;16.378;2023-06-26T02:41:36;21.00;55.10
76168;DHT22;64927;48.214;16.378;2023-06-26T02:44:01;21.00;54.10
76168;DHT22;64927;48.214;16.378;2023-06-26T02:46:27;20.90;54.20
76168;DHT22;64927;48.214;16.378;2023-06-26T02:48:52;21.00;54.00
76168;DHT22;64927;48.214;16.378;2023-06-26T02:51:18;20.90;54.10
76168;DHT22;64927;48.214;16.378;2023-06-26T02:53:44;20.90;54.20
76168;DHT22;64927;48.214;16.378;2023-06-26T02:56:09;20.90;54.80
76168;DHT22;64927;48.214;16.378;2023-06-26T02:58:35;20.80;55.90
76168;DHT22;64927;48.214;16.378;2023-06-26T03:01:00;20.60;57.80
76168;DHT22;64927;48.214;16.378;2023-06-26T03:03:26;20.40;58.60
76168;DHT22;64927;48.214;16.378;2023-06-26T03:05:51;20.40;59.40
76168;DHT22;64927;48.214;16.378;2023-06-26T03:08:17;20.20;59.90
76168;DHT22;64927;48.214;16.378;2023-06-26T03:10:43;20.20;60.40
76168;DHT22;64927;48.214;16.378;2023-06-26T03:13:08;20.10;60.50
76168;DHT22;64927;48.214;16.378;2023-06-26T03:15:34;20.10;60.60
76168;DHT22;64927;48.214;16.378;2023-06-26T03:17:59;20.10;60.70
76168;DHT22;64927;48.214;16.378;2023-06-26T03:20:25;20.00;60.90
76168;DHT22;64927;48.214;16.378;2023-06-26T03:22:50;20.00;60.80
76168;DHT22;64927;48.214;16.378;2023-06-26T03:25:18;20.00;60.90
76168;DHT22;64927;48.214;16.378;2023-06-26T03:27:44;20.00;60.40
76168;DHT22;64927;48.214;16.378;2023-06-26T03:30:10;20.00;60.60
76168;DHT22;64927;48.214;16.378;2023-06-26T03:32:41;20.00;61.00
76168;DHT22;64927;48.214;16.378;2023-06-26T03:35:06;20.00;61.30
76168;DHT22;64927;48.214;16.378;2023-06-26T03:37:32;20.00;61.30
76168;DHT22;64927;48.214;16.378;2023-06-26T03:40:00;20.00;61.10
76168;DHT22;64927;48.214;16.378;2023-06-26T03:42:26;20.10;60.50
76168;DHT22;64927;48.214;16.378;2023-06-26T03:44:54;20.10;60.20
76168;DHT22;64927;48.214;16.378;2023-06-26T03:47:20;20.10;60.60
76168;DHT22;64927;48.214;16.378;2023-06-26T03:49:45;20.20;60.40
76168;DHT22;64927;48.214;16.378;2023-06-26T03:52:11;20.20;60.40
76168;DHT22;64927;48.214;16.378;2023-06-26T03:54:36;20.20;60.30
76168;DHT22;64927;48.214;16.378;2023-06-26T03:57:02;20.30;60.10
76168;DHT22;64927;48.214;16.378;2023-06-26T03:59:28;20.30;59.80
76168;DHT22;64927;48.214;16.378;2023-06-26T04:01:56;20.40;59.70
76168;DHT22;64927;48.214;16.378;2023-06-26T04:04:22;20.50;59.50
76168;DHT22;64927;48.214;16.378;2023-06-26T04:06:49;20.50;59.50
76168;DHT22;64927;48.214;16.378;2023-06-26T04:09:16;20.60;59.20
76168;DHT22;64927;48.214;16.378;2023-06-26T04:11:41;20.60;59.20
76168;DHT22;64927;48.214;16.378;2023-06-26T04:14:07;20.70;59.30
76168;DHT22;64927;48.214;16.378;2023-06-26T04:16:35;20.70;58.90
76168;DHT22;64927;48.214;16.378;2023-06-26T04:19:00;20.80;58.90
76168;DHT22;64927;48.214;16.378;2023-06-26T04:21:30;20.90;58.50
76168;DHT22;64927;48.214;16.378;2023-06-26T04:23:56;20.90;58.40
76168;DHT22;64927;48.214;16.378;2023-06-26T04:26:22;21.00;58.20
76168;DHT22;64927;48.214;16.378;2023-06-26T04:28:49;21.20;57.90
76168;DHT22;64927;48.214;16.378;2023-06-26T04:31:15;21.30;57.50
76168;DHT22;64927;48.214;16.378;2023-06-26T04:33:43;21.40;57.60
76168;DHT22;64927;48.214;16.378;2023-06-26T04:36:09;21.60;57.20
76168;DHT22;64927;48.214;16.378;2023-06-26T04:38:37;21.70;55.90
76168;DHT22;64927;48.214;16.378;2023-06-26T04:41:02;21.80;56.10
76168;DHT22;64927;48.214;16.378;2023-06-26T04:43:28;22.00;55.80
76168;DHT22;64927;48.214;16.378;2023-06-26T04:45:54;22.00;55.50
76168;DHT22;64927;48.214;16.378;2023-06-26T04:48:21;21.90;54.70
76168;DHT22;64927;48.214;16.378;2023-06-26T04:50:47;22.10;55.30
76168;DHT22;64927;48.214;16.378;2023-06-26T04:53:20;22.30;54.40
76168;DHT22;64927;48.214;16.378;2023-06-26T04:55:46;22.20;54.40
76168;DHT22;64927;48.214;16.378;2023-06-26T04:58:11;22.40;54.50
76168;DHT22;64927;48.214;16.378;2023-06-26T05:00:37;22.30;54.00
76168;DHT22;64927;48.214;16.378;2023-06-26T05:03:03;22.50;54.10
76168;DHT22;64927;48.214;16.378;2023-06-26T05:05:31;22.60;53.70
76168;DHT22;64927;48.214;16.378;2023-06-26T05:08:13;22.70;54.10
76168;DHT22;64927;48.214;16.378;2023-06-26T05:10:40;22.70;53.00
76168;DHT22;64927;48.214;16.378;2023-06-26T05:13:05;22.90;52.60
76168;DHT22;64927;48.214;16.378;2023-06-26T05:15:31;22.90;52.50
76168;DHT22;64927;48.214;16.378;2023-06-26T05:17:56;23.10;52.90
76168;DHT22;64927;48.214;16.378;2023-06-26T05:20:22;23.30;53.50
76168;DHT22;64927;48.214;16.378;2023-06-26T05:22:47;23.30;52.30
76168;DHT22;64927;48.214;16.378;2023-06-26T05:25:14;23.40;51.90
76168;DHT22;64927;48.214;16.378;2023-06-26T05:27:43;23.40;51.90
76168;DHT22;64927;48.214;16.378;2023-06-26T05:30:09;23.50;50.90
76168;DHT22;64927;48.214;16.378;2023-06-26T05:32:37;23.50;51.20
76168;DHT22;64927;48.214;16.378;2023-06-26T05:35:03;23.50;50.40
76168;DHT22;64927;48.214;16.378;2023-06-26T05:37:31;23.70;50.60
76168;DHT22;64927;48.214;16.378;2023-06-26T05:39:57;23.70;51.00
76168;DHT22;64927;48.214;16.378;2023-06-26T05:42:23;24.00;50.20
76168;DHT22;64927;48.214;16.378;2023-06-26T05:44:49;24.20;48.00
76168;DHT22;64927;48.214;16.378;2023-06-26T05:47:15;24.30;48.60
76168;DHT22;64927;48.214;16.378;2023-06-26T05:49:41;24.60;49.00
76168;DHT22;64927;48.214;16.378;2023-06-26T05:52:09;24.50;46.70
76168;DHT22;64927;48.214;16.378;2023-06-26T05:54:35;24.60;47.10
76168;DHT22;64927;48.214;16.378;2023-06-26T05:57:02;24.50;46.40
76168;DHT22;64927;48.214;16.378;2023-06-26T05:59:31;24.60;46.50
76168;DHT22;64927;48.214;16.378;2023-06-26T06:01:57;24.80;45.80
76168;DHT22;64927;48.214;16.378;2023-06-26T06:04:23;25.30;45.80
76168;DHT22;64927;48.214;16.378;2023-06-26T06:06:51;25.60;45.20
76168;DHT22;64927;48.214;16.378;2023-06-26T06:09:19;25.60;43.60
76168;DHT22;64927;48.214;16.378;2023-06-26T06:11:45;25.80;43.60
76168;DHT22;64927;48.214;16.378;2023-06-26T06:14:12;26.00;42.30
76168;DHT22;64927;48.214;16.378;2023-06-26T06:16:41;26.00;43.40
76168;DHT22;64927;48.214;16.378;2023-06-26T06:19:06;26.70;43.40
76168;DHT22;64927;48.214;16.378;2023-06-26T06:21:33;26.80;40.90
76168;DHT22;64927;48.214;16.378;2023-06-26T06:23:58;27.10;40.10
76168;DHT22;64927;48.214;16.378;2023-06-26T06:26:24;27.60;39.40
76168;DHT22;64927;48.214;16.378;2023-06-26T06:28:50;28.00;38.80
76168;DHT22;64927;48.214;16.378;2023-06-26T06:31:18;28.20;36.50
76168;DHT22;64927;48.214;16.378;2023-06-26T06:33:44;28.40;36.20
76168;DHT22;64927;48.214;16.378;2023-06-26T06:36:12;29.30;35.70
76168;DHT22;64927;48.214;16.378;2023-06-26T06:38:43;29.30;35.00
76168;DHT22;64927;48.214;16.378;2023-06-26T06:41:09;29.50;36.20
76168;DHT22;64927;48.214;16.378;2023-06-26T06:43:34;29.90;35.20
76168;DHT22;64927;48.214;16.378;2023-06-26T06:46:01;30.30;33.20
76168;DHT22;64927;48.214;16.378;2023-06-26T06:48:27;30.50;31.90
76168;DHT22;64927;48.214;16.378;2023-06-26T06:50:57;30.30;33.20
76168;DHT22;64927;48.214;16.378;2023-06-26T06:53:23;30.40;31.70
76168;DHT22;64927;48.214;16.378;2023-06-26T06:55:49;30.20;31.90
76168;DHT22;64927;48.214;16.378;2023-06-26T06:58:17;30.50;31.70
76168;DHT22;64927;48.214;16.378;2023-06-26T07:00:44;30.50;32.50
76168;DHT22;64927;48.214;16.378;2023-06-26T07:03:12;30.40;30.70
76168;DHT22;64927;48.214;16.378;2023-06-26T07:05:38;30.70;31.20
76168;DHT22;64927;48.214;16.378;2023-06-26T07:08:04;30.70;31.20
76168;DHT22;64927;48.214;16.378;2023-06-26T07:10:30;30.70;31.40
76168;DHT22;64927;48.214;16.378;2023-06-26T07:12:59;31.20;31.50
76168;DHT22;64927;48.214;16.378;2023-06-26T07:15:25;31.60;30.40
76168;DHT22;64927;48.214;16.378;2023-06-26T07:17:50;30.90;31.60
76168;DHT22;64927;48.214;16.378;2023-06-26T07:20:16;31.00;31.90
76168;DHT22;64927;48.214;16.378;2023-06-26T07:22:42;30.80;31.60
76168;DHT22;64927;48.214;16.378;2023-06-26T07:25:12;31.00;32.10
76168;DHT22;64927;48.214;16.378;2023-06-26T07:27:39;30.60;30.90
76168;DHT22;64927;48.214;16.378;2023-06-26T07:30:05;31.10;30.80
76168;DHT22;64927;48.214;16.378;2023-06-26T07:32:31;31.30;31.10
76168;DHT22;64927;48.214;16.378;2023-06-26T07:34:56;31.70;29.40
76168;DHT22;64927;48.214;16.378;2023-06-26T07:37:22;31.40;29.10
76168;DHT22;64927;48.214;16.378;2023-06-26T07:39:49;31.30;29.30
76168;DHT22;64927;48.214;16.378;2023-06-26T07:42:15;31.50;28.90
76168;DHT22;64927;48.214;16.378;2023-06-26T07:44:43;31.50;28.60
76168;DHT22;64927;48.214;16.378;2023-06-26T07:47:09;31.10;29.40
76168;DHT22;64927;48.214;16.378;2023-06-26T07:49:35;30.80;29.20
76168;DHT22;64927;48.214;16.378;2023-06-26T07:52:01;31.00;29.20
76168;DHT22;64927;48.214;16.378;2023-06-26T07:54:28;31.30;28.90
76168;DHT22;64927;48.214;16.378;2023-06-26T07:57:07;31.40;28.80
76168;DHT22;64927;48.214;16.378;2023-06-26T07:59:34;31.40;29.10
76168;DHT22;64927;48.214;16.378;2023-06-26T08:02:00;31.20;29.00
76168;DHT22;64927;48.214;16.378;2023-06-26T08:04:27;30.90;29.30
76168;DHT22;64927;48.214;16.378;2023-06-26T08:06:56;31.50;29.30
76168;DHT22;64927;48.214;16.378;2023-06-26T08:09:27;31.70;28.70
76168;DHT22;64927;48.214;16.378;2023-06-26T08:11:53;31.60;29.30
76168;DHT22;64927;48.214;16.378;2023-06-26T08:14:19;31.70;28.10
76168;DHT22;64927;48.214;16.378;2023-06-26T08:16:45;31.30;28.70
76168;DHT22;64927;48.214;16.378;2023-06-26T08:19:12;31.80;28.20
76168;DHT22;64927;48.214;16.378;2023-06-26T08:21:37;31.60;27.90
76168;DHT22;64927;48.214;16.378;2023-06-26T08:24:03;31.20;28.60
76168;DHT22;64927;48.214;16.378;2023-06-26T08:26:29;31.60;28.60
76168;DHT22;64927;48.214;16.378;2023-06-26T08:28:55;31.60;28.80
76168;DHT22;64927;48.214;16.378;2023-06-26T08:31:23;31.70;28.90
76168;DHT22;64927;48.214;16.378;2023-06-26T08:33:48;31.90;28.80
76168;DHT22;64927;48.214;16.378;2023-06-26T08:36:14;31.60;28.80
76168;DHT22;64927;48.214;16.378;2023-06-26T08:38:40;30.90;29.70
76168;DHT22;64927;48.214;16.378;2023-06-26T08:41:08;31.20;29.50
76168;DHT22;64927;48.214;16.378;2023-06-26T08:43:35;31.60;28.70
76168;DHT22;64927;48.214;16.378;2023-06-26T08:46:03;31.90;29.00
76168;DHT22;64927;48.214;16.378;2023-06-26T08:48:32;31.70;29.00
76168;DHT22;64927;48.214;16.378;2023-06-26T08:51:09;31.80;29.20
76168;DHT22;64927;48.214;16.378;2023-06-26T08:53:52;32.00;28.90
76168;DHT22;64927;48.214;16.378;2023-06-26T08:56:22;31.90;29.50
76168;DHT22;64927;48.214;16.378;2023-06-26T08:58:49;31.70;28.80
76168;DHT22;64927;48.214;16.378;2023-06-26T09:01:16;32.20;29.30
76168;DHT22;64927;48.214;16.378;2023-06-26T09:03:43;32.40;29.10
76168;DHT22;64927;48.214;16.378;2023-06-26T09:06:09;32.60;28.20
76168;DHT22;64927;48.214;16.378;2023-06-26T09:08:37;32.80;28.80
76168;DHT22;64927;48.214;16.378;2023-06-26T09:11:03;32.70;28.60
76168;DHT22;64927;48.214;16.378;2023-06-26T09:13:29;33.10;28.50
76168;DHT22;64927;48.214;16.378;2023-06-26T09:15:55;33.30;28.00
76168;DHT22;64927;48.214;16.378;2023-06-26T09:18:21;32.70;28.70
76168;DHT22;64927;48.214;16.378;2023-06-26T09:20:48;32.80;29.40
76168;DHT22;64927;48.214;16.378;2023-06-26T09:23:14;33.00;29.30
76168;DHT22;64927;48.214;16.378;2023-06-26T09:25:40;33.10;28.90
76168;DHT22;64927;48.214;16.378;2023-06-26T09:28:06;33.30;28.90
76168;DHT22;64927;48.214;16.378;2023-06-26T09:30:35;33.10;28.60
76168;DHT22;64927;48.214;16.378;2023-06-26T09:33:18;33.20;29.20
76168;DHT22;64927;48.214;16.378;2023-06-26T09:35:47;33.70;28.40
76168;DHT22;64927;48.214;16.378;2023-06-26T09:38:13;33.30;28.60
76168;DHT22;64927;48.214;16.378;2023-06-26T09:40:40;33.10;28.90
76168;DHT22;64927;48.214;16.378;2023-06-26T09:43:12;33.20;29.00
76168;DHT22;64927;48.214;16.378;2023-06-26T09:45:39;33.00;28.90
76168;DHT22;64927;48.214;16.378;2023-06-26T09:48:06;33.20;28.80
76168;DHT22;64927;48.214;16.378;2023-06-26T09:50:34;33.70;28.50
76168;DHT22;64927;48.214;16.378;2023-06-26T09:53:11;33.50;27.80
76168;DHT22;64927;48.214;16.378;2023-06-26T09:55:40;32.90;28.40
76168;DHT22;64927;48.214;16.378;2023-06-26T09:58:12;32.20;28.90
76168;DHT22;64927;48.214;16.378;2023-06-26T10:00:42;32.40;28.80
76168;DHT22;64927;48.214;16.378;2023-06-26T10:03:09;32.20;29.70
76168;DHT22;64927;48.214;16.378;2023-06-26T10:05:38;32.60;29.40
76168;DHT22;64927;48.214;16.378;2023-06-26T10:08:06;32.70;29.50
76168;DHT22;64927;48.214;16.378;2023-06-26T10:10:37;32.90;28.70
76168;DHT22;64927;48.214;16.378;2023-06-26T10:13:18;32.90;29.10
76168;DHT22;64927;48.214;16.378;2023-06-26T10:15:48;33.20;28.30
76168;DHT22;64927;48.214;16.378;2023-06-26T10:18:17;32.30;28.50
76168;DHT22;64927;48.214;16.378;2023-06-26T10:20:48;32.40;28.80
76168;DHT22;64927;48.214;16.378;2023-06-26T10:23:15;32.20;29.10
76168;DHT22;64927;48.214;16.378;2023-06-26T10:25:45;32.50;29.10
76168;DHT22;64927;48.214;16.378;2023-06-26T10:28:15;32.40;29.50
76168;DHT22;64927;48.214;16.378;2023-06-26T10:30:42;32.60;28.90
76168;DHT22;64927;48.214;16.378;2023-06-26T10:33:09;32.00;29.80
76168;DHT22;64927;48.214;16.378;2023-06-26T10:35:44;31.70;30.00
76168;DHT22;64927;48.214;16.378;2023-06-26T10:38:12;31.60;30.30
76168;DHT22;64927;48.214;16.378;2023-06-26T10:40:43;31.70;30.10
76168;DHT22;64927;48.214;16.378;2023-06-26T10:43:11;31.60;30.10
76168;DHT22;64927;48.214;16.378;2023-06-26T10:45:42;31.20;30.20
76168;DHT22;64927;48.214;16.378;2023-06-26T10:48:14;31.30;31.30
76168;DHT22;64927;48.214;16.378;2023-06-26T10:50:39;31.10;30.90
76168;DHT22;64927;48.214;16.378;2023-06-26T10:55:36;31.10;30.90
76168;DHT22;64927;48.214;16.378;2023-06-26T10:58:02;30.50;31.00
76168;DHT22;64927;48.214;16.378;2023-06-26T11:00:30;30.60;31.70
76168;DHT22;64927;48.214;16.378;2023-06-26T11:02:56;30.60;31.80
76168;DHT22;64927;48.214;16.378;2023-06-26T11:05:25;30.40;32.20
76168;DHT22;64927;48.214;16.378;2023-06-26T11:08:08;30.30;32.00
76168;DHT22;64927;48.214;16.378;2023-06-26T11:10:52;30.30;32.20
76168;DHT22;64927;48.214;16.378;2023-06-26T11:13:21;30.20;32.60
76168;DHT22;64927;48.214;16.378;2023-06-26T11:15:48;30.20;32.70
76168;DHT22;64927;48.214;16.378;2023-06-26T11:18:14;30.30;32.10
76168;DHT22;64927;48.214;16.378;2023-06-26T11:20:40;30.30;31.80
76168;DHT22;64927;48.214;16.378;2023-06-26T11:23:08;30.40;31.10
76168;DHT22;64927;48.214;16.378;2023-06-26T11:25:37;30.50;31.70
76168;DHT22;64927;48.214;16.378;2023-06-26T11:28:09;30.60;31.40
76168;DHT22;64927;48.214;16.378;2023-06-26T11:30:35;30.60;32.70
76168;DHT22;64927;48.214;16.378;2023-06-26T11:33:05;30.60;31.00
76168;DHT22;64927;48.214;16.378;2023-06-26T11:35:31;30.40;31.30
76168;DHT22;64927;48.214;16.378;2023-06-26T11:37:58;30.50;31.60
76168;DHT22;64927;48.214;16.378;2023-06-26T11:40:26;30.80;31.70
76168;DHT22;64927;48.214;16.378;2023-06-26T11:43:00;30.70;31.10
76168;DHT22;64927;48.214;16.378;2023-06-26T11:45:28;30.70;31.80
76168;DHT22;64927;48.214;16.378;2023-06-26T11:47:58;30.90;31.60
76168;DHT22;64927;48.214;16.378;2023-06-26T11:50:27;31.10;31.30
76168;DHT22;64927;48.214;16.378;2023-06-26T11:52:56;30.80;30.50
76168;DHT22;64927;48.214;16.378;2023-06-26T11:55:23;30.80;31.60
76168;DHT22;64927;48.214;16.378;2023-06-26T11:57:58;30.60;31.30
76168;DHT22;64927;48.214;16.378;2023-06-26T12:00:24;30.70;30.90
76168;DHT22;64927;48.214;16.378;2023-06-26T12:02:49;30.80;30.50
76168;DHT22;64927;48.214;16.378;2023-06-26T12:05:17;30.70;31.10
76168;DHT22;64927;48.214;16.378;2023-06-26T12:07:44;30.90;31.60
76168;DHT22;64927;48.214;16.378;2023-06-26T12:10:13;30.90;31.50
76168;DHT22;64927;48.214;16.378;2023-06-26T12:12:40;30.80;31.20
76168;DHT22;64927;48.214;16.378;2023-06-26T12:15:07;30.60;31.20
76168;DHT22;64927;48.214;16.378;2023-06-26T12:17:37;30.60;31.40
76168;DHT22;64927;48.214;16.378;2023-06-26T12:20:05;30.70;31.60
76168;DHT22;64927;48.214;16.378;2023-06-26T12:22:34;30.80;30.60
76168;DHT22;64927;48.214;16.378;2023-06-26T12:25:01;30.80;30.90
76168;DHT22;64927;48.214;16.378;2023-06-26T12:27:27;30.50;31.20
76168;DHT22;64927;48.214;16.378;2023-06-26T12:29:56;30.40;31.50
76168;DHT22;64927;48.214;16.378;2023-06-26T12:32:25;30.40;31.00
76168;DHT22;64927;48.214;16.378;2023-06-26T12:34:51;30.40;31.20
76168;DHT22;64927;48.214;16.378;2023-06-26T12:37:17;30.30;31.30
76168;DHT22;64927;48.214;16.378;2023-06-26T12:39:53;30.50;31.00
76168;DHT22;64927;48.214;16.378;2023-06-26T12:42:21;30.50;31.20
76168;DHT22;64927;48.214;16.378;2023-06-26T12:44:48;30.30;31.60
76168;DHT22;64927;48.214;16.378;2023-06-26T12:47:24;30.20;31.60
76168;DHT22;64927;48.214;16.378;2023-06-26T12:49:51;30.30;32.40
76168;DHT22;64927;48.214;16.378;2023-06-26T12:52:19;30.40;31.80
76168;DHT22;64927;48.214;16.378;2023-06-26T12:54:46;30.60;32.20
76168;DHT22;64927;48.214;16.378;2023-06-26T12:57:13;30.50;31.70
76168;DHT22;64927;48.214;16.378;2023-06-26T12:59:41;30.60;32.00
76168;DHT22;64927;48.214;16.378;2023-06-26T13:02:07;30.70;31.60
76168;DHT22;64927;48.214;16.378;2023-06-26T13:04:33;30.80;31.60
76168;DHT22;64927;48.214;16.378;2023-06-26T13:06:59;30.80;31.90
76168;DHT22;64927;48.214;16.378;2023-06-26T13:09:25;30.60;32.10
76168;DHT22;64927;48.214;16.378;2023-06-26T13:11:54;30.90;32.50
76168;DHT22;64927;48.214;16.378;2023-06-26T13:14:22;30.80;31.80
76168;DHT22;64927;48.214;16.378;2023-06-26T13:16:50;30.70;32.40
76168;DHT22;64927;48.214;16.378;2023-06-26T13:19:16;30.70;32.70
76168;DHT22;64927;48.214;16.378;2023-06-26T13:21:41;31.00;32.00
76168;DHT22;64927;48.214;16.378;2023-06-26T13:24:07;31.10;31.60
76168;DHT22;64927;48.214;16.378;2023-06-26T13:26:33;31.10;31.80
76168;DHT22;64927;48.214;16.378;2023-06-26T13:28:59;31.00;31.70
76168;DHT22;64927;48.214;16.378;2023-06-26T13:31:25;31.00;31.80
76168;DHT22;64927;48.214;16.378;2023-06-26T13:33:53;30.90;32.90
76168;DHT22;64927;48.214;16.378;2023-06-26T13:36:21;30.80;32.90
76168;DHT22;64927;48.214;16.378;2023-06-26T13:38:50;30.50;33.00
76168;DHT22;64927;48.214;16.378;2023-06-26T13:41:24;30.40;32.90
76168;DHT22;64927;48.214;16.378;2023-06-26T13:43:50;30.60;33.20
76168;DHT22;64927;48.214;16.378;2023-06-26T13:46:16;30.70;33.10
76168;DHT22;64927;48.214;16.378;2023-06-26T13:48:44;30.80;33.40
76168;DHT22;64927;48.214;16.378;2023-06-26T13:51:09;30.70;33.30
76168;DHT22;64927;48.214;16.378;2023-06-26T13:53:35;30.80;33.20
76168;DHT22;64927;48.214;16.378;2023-06-26T13:56:00;31.00;32.80
76168;DHT22;64927;48.214;16.378;2023-06-26T13:58:26;31.20;32.30
76168;DHT22;64927;48.214;16.378;2023-06-26T14:00:53;31.10;31.90
76168;DHT22;64927;48.214;16.378;2023-06-26T14:03:19;31.20;32.00
76168;DHT22;64927;48.214;16.378;2023-06-26T14:05:45;31.20;32.20
76168;DHT22;64927;48.214;16.378;2023-06-26T14:08:13;31.00;32.10
76168;DHT22;64927;48.214;16.378;2023-06-26T14:10:41;30.80;32.60
76168;DHT22;64927;48.214;16.378;2023-06-26T14:13:08;30.80;32.30
76168;DHT22;64927;48.214;16.378;2023-06-26T14:15:34;30.70;32.90
76168;DHT22;64927;48.214;16.378;2023-06-26T14:18:03;30.80;33.20
76168;DHT22;64927;48.214;16.378;2023-06-26T14:20:29;30.80;33.10
76168;DHT22;64927;48.214;16.378;2023-06-26T14:23:00;30.90;33.30
76168;DHT22;64927;48.214;16.378;2023-06-26T14:25:28;30.80;33.00
76168;DHT22;64927;48.214;16.378;2023-06-26T14:27:58;30.80;32.80
76168;DHT22;64927;48.214;16.378;2023-06-26T14:30:23;30.70;33.10
76168;DHT22;64927;48.214;16.378;2023-06-26T14:32:49;31.00;32.70
76168;DHT22;64927;48.214;16.378;2023-06-26T14:35:15;31.10;32.90
76168;DHT22;64927;48.214;16.378;2023-06-26T14:37:41;31.10;32.80
76168;DHT22;64927;48.214;16.378;2023-06-26T14:40:08;31.20;32.70
76168;DHT22;64927;48.214;16.378;2023-06-26T14:42:36;31.50;32.90
76168;DHT22;64927;48.214;16.378;2023-06-26T14:45:02;31.40;32.50
76168;DHT22;64927;48.214;16.378;2023-06-26T14:47:31;31.40;32.20
76168;DHT22;64927;48.214;16.378;2023-06-26T14:49:57;31.10;32.60
76168;DHT22;64927;48.214;16.378;2023-06-26T14:52:25;31.10;32.90
76168;DHT22;64927;48.214;16.378;2023-06-26T14:54:50;31.20;33.00
76168;DHT22;64927;48.214;16.378;2023-06-26T14:57:16;31.30;32.80
76168;DHT22;64927;48.214;16.378;2023-06-26T14:59:42;31.40;32.60
76168;DHT22;64927;48.214;16.378;2023-06-26T15:02:07;31.50;32.50
76168;DHT22;64927;48.214;16.378;2023-06-26T15:04:33;31.50;32.30
76168;DHT22;64927;48.214;16.378;2023-06-26T15:06:59;31.40;32.20
76168;DHT22;64927;48.214;16.378;2023-06-26T15:09:27;31.30;32.20
76168;DHT22;64927;48.214;16.378;2023-06-26T15:11:52;31.30;32.90
76168;DHT22;64927;48.214;16.378;2023-06-26T15:14:18;31.10;32.60
76168;DHT22;64927;48.214;16.378;2023-06-26T15:16:44;30.90;32.90
76168;DHT22;64927;48.214;16.378;2023-06-26T15:19:14;31.00;32.70
76168;DHT22;64927;48.214;16.378;2023-06-26T15:21:42;31.10;31.90
76168;DHT22;64927;48.214;16.378;2023-06-26T15:24:08;31.10;32.30
76168;DHT22;64927;48.214;16.378;2023-06-26T15:26:36;31.40;32.20